Aviation Digital Data Service (ADDS)

Output produced by TAFs form (2357 UTC 18 February 2018)
found at http://www.aviationweather.gov/adds/tafs/
 
METAR text: RJOO 182300Z VRB02KT CAVOK 01/M06 Q1024 RMK A3024
Conditions at: RJOO (OSAKA INTL/ITAMI, JP) observed 2300 UTC 18 February 2018
Temperature: 1.0°C (34°F)
Dewpoint: -6.0°C (21°F) [RH = 59%]
Pressure (altimeter): 30.24 inches Hg (1024.0 mb)
Winds: variable direction winds at 2 MPH (2 knots; 1.0 m/s)
Visibility: 6 or more miles (10+ km)
Ceiling: ceiling and visibility are OK
Clouds: unknown
Weather: no significant weather observed at this time

Forecast for: RJOO (OSAKA INTL/ITAMI, JP)
Text: TAF RJOO 182308Z 1900/2006 24005KT 9999 FEW030
Forecast period: 0000 UTC 19 February 2018 to 0600 UTC 20 February 2018
Forecast type: FROM: standard forecast or significant change
Winds: from the WSW (240 degrees) at 6 MPH (5 knots; 2.6 m/s)
Visibility: 6 or more miles (10+ km)
Clouds: few clouds at 3000 feet AGL
Weather: no significant weather forecast for this period